createdAt,value
2022-08-09T00:00:00.620Z,18.98
2022-08-09T00:02:36.447Z,19.02
2022-08-09T00:06:18.465Z,19.05
2022-08-09T00:08:10.171Z,19.09
2022-08-09T00:10:42.198Z,19.10
2022-08-09T00:13:17.692Z,19.12
2022-08-09T00:15:58.944Z,19.13
2022-08-09T00:18:34.734Z,19.15
2022-08-09T00:21:07.980Z,19.20
2022-08-09T00:23:54.986Z,19.21
2022-08-09T00:26:33.148Z,19.21
2022-08-09T00:29:12.333Z,19.20
2022-08-09T00:32:00.891Z,19.22
2022-08-09T00:34:33.556Z,19.20
2022-08-09T00:37:05.519Z,19.22
2022-08-09T00:40:13.629Z,19.23
2022-08-09T00:44:17.022Z,19.24
2022-08-09T00:45:22.239Z,19.25
2022-08-09T00:47:55.500Z,19.25
2022-08-09T00:50:27.489Z,19.26
2022-08-09T00:52:59.538Z,19.26
2022-08-09T00:56:02.962Z,19.28
2022-08-09T00:58:26.203Z,19.26
2022-08-09T01:01:00.065Z,19.28
2022-08-09T01:03:32.802Z,19.27
2022-08-09T01:06:17.345Z,19.29
2022-08-09T01:08:51.649Z,19.31
2022-08-09T01:11:23.921Z,19.31
2022-08-09T01:14:00.326Z,19.31
2022-08-09T01:16:35.151Z,19.34
2022-08-09T01:19:07.391Z,19.32
2022-08-09T01:21:51.207Z,19.34
2022-08-09T01:24:23.844Z,19.33
2022-08-09T01:26:56.428Z,19.32
2022-08-09T01:29:28.351Z,19.34
2022-08-09T01:32:29.438Z,19.31
2022-08-09T01:35:06.984Z,19.32
2022-08-09T01:38:08.174Z,19.30
2022-08-09T01:40:41.727Z,19.29
2022-08-09T01:43:13.250Z,19.28
2022-08-09T01:45:47.740Z,19.28
2022-08-09T01:48:19.349Z,19.27
2022-08-09T01:50:56.072Z,19.23
2022-08-09T01:53:41.642Z,19.20
2022-08-09T01:56:13.994Z,19.14
2022-08-09T01:58:48.861Z,19.11
2022-08-09T02:01:21.454Z,19.07
2022-08-09T02:04:12.297Z,19.06
2022-08-09T02:07:03.002Z,19.01
2022-08-09T02:09:42.154Z,18.99
2022-08-09T02:12:18.092Z,18.94
2022-08-09T02:14:53.465Z,18.94
2022-08-09T02:18:00.080Z,18.93
2022-08-09T02:20:26.573Z,18.89
2022-08-09T02:23:04.547Z,18.89
2022-08-09T02:25:42.589Z,18.88
2022-08-09T02:28:21.058Z,18.88
2022-08-09T02:30:55.953Z,18.91
2022-08-09T02:33:58.385Z,18.92
2022-08-09T02:36:19.528Z,18.93
2022-08-09T02:38:51.066Z,18.90
2022-08-09T02:41:22.618Z,18.93
2022-08-09T02:43:55.586Z,18.93
2022-08-09T02:46:28.401Z,18.94
2022-08-09T02:49:00.233Z,18.93
2022-08-09T02:51:37.239Z,18.94
2022-08-09T02:54:13.900Z,18.92
2022-08-09T02:56:45.991Z,18.94
2022-08-09T02:59:26.195Z,18.93
2022-08-09T03:02:11.957Z,18.95
2022-08-09T03:04:43.913Z,18.96
2022-08-09T03:07:16.755Z,18.97
2022-08-09T03:09:56.406Z,18.41
2022-08-09T03:12:28.875Z,18.96
2022-08-09T03:15:00.723Z,18.96
2022-08-09T03:17:32.531Z,18.96
2022-08-09T03:20:11.231Z,18.97
2022-08-09T03:22:46.839Z,18.99
2022-08-09T03:25:58.260Z,19.01
2022-08-09T03:28:20.348Z,19.02
2022-08-09T03:30:52.704Z,19.03
2022-08-09T03:33:24.237Z,19.05
2022-08-09T03:36:12.904Z,19.02
2022-08-09T03:38:46.988Z,19.05
2022-08-09T03:41:19.000Z,19.07
2022-08-09T03:44:03.043Z,19.08
2022-08-09T03:46:40.540Z,19.09
2022-08-09T03:49:12.074Z,19.07
2022-08-09T03:51:58.290Z,19.05
2022-08-09T03:54:31.460Z,19.06
2022-08-09T03:57:04.333Z,19.07
2022-08-09T03:59:53.381Z,19.08
2022-08-09T04:02:28.212Z,19.05
2022-08-09T04:05:06.521Z,19.08
2022-08-09T04:07:53.691Z,19.07
2022-08-09T04:10:30.454Z,19.08
2022-08-09T04:13:09.419Z,19.09
2022-08-09T04:16:20.516Z,19.11
2022-08-09T04:18:36.807Z,19.15
2022-08-09T04:21:09.375Z,19.14
2022-08-09T04:23:40.870Z,19.16
2022-08-09T04:26:38.053Z,19.19
2022-08-09T04:29:15.498Z,19.23
2022-08-09T04:31:47.702Z,19.24
2022-08-09T04:34:30.789Z,19.25
2022-08-09T04:37:03.877Z,19.28
2022-08-09T04:39:40.584Z,19.32
2022-08-09T04:42:15.919Z,19.39
2022-08-09T04:44:50.409Z,19.43
2022-08-09T04:47:24.833Z,19.45
2022-08-09T04:49:56.639Z,19.49
2022-08-09T04:52:28.143Z,19.53
2022-08-09T04:55:00.163Z,19.56
2022-08-09T04:57:54.139Z,19.61
2022-08-09T05:00:23.764Z,19.66
2022-08-09T05:02:56.721Z,19.70
2022-08-09T05:05:32.161Z,19.72
2022-08-09T05:08:20.582Z,19.80
2022-08-09T05:10:53.308Z,19.89
2022-08-09T05:13:25.201Z,19.94
2022-08-09T05:15:58.584Z,20.03
2022-08-09T05:18:38.601Z,20.08
2022-08-09T05:21:29.801Z,20.16
2022-08-09T05:24:04.107Z,20.29
2022-08-09T05:26:45.693Z,20.31
2022-08-09T05:29:22.840Z,20.34
2022-08-09T05:32:00.434Z,20.51
2022-08-09T05:34:32.793Z,20.55
2022-08-09T05:37:05.223Z,20.52
2022-08-09T05:39:43.333Z,20.65
2022-08-09T05:42:17.483Z,20.62
2022-08-09T05:45:05.465Z,20.80
2022-08-09T05:47:45.619Z,20.84
2022-08-09T05:50:44.307Z,21.02
2022-08-09T05:53:21.430Z,21.14
2022-08-09T05:56:04.401Z,21.31
2022-08-09T05:58:36.579Z,21.24
2022-08-09T06:01:08.582Z,21.27
2022-08-09T06:03:57.997Z,21.32
2022-08-09T06:06:30.846Z,21.45
2022-08-09T06:09:05.591Z,21.54
2022-08-09T06:11:57.598Z,21.72
2022-08-09T06:14:29.494Z,21.70
2022-08-09T06:17:09.202Z,21.76
2022-08-09T06:19:41.452Z,21.99
2022-08-09T06:22:15.400Z,21.94
2022-08-09T06:24:47.604Z,21.90
2022-08-09T06:27:20.512Z,22.15
2022-08-09T06:30:04.306Z,22.37
2022-08-09T06:32:59.509Z,22.25
2022-08-09T06:35:55.834Z,22.15
2022-08-09T06:38:20.514Z,22.03
2022-08-09T06:41:04.100Z,22.34
2022-08-09T06:43:36.321Z,22.86
2022-08-09T06:46:11.551Z,23.44
2022-08-09T06:49:03.024Z,23.14
2022-08-09T06:51:40.006Z,23.05
2022-08-09T06:54:14.771Z,22.92
2022-08-09T06:56:46.901Z,22.84
2022-08-09T07:00:50.915Z,22.76
2022-08-09T07:02:10.731Z,22.87
2022-08-09T07:04:42.659Z,22.97
2022-08-09T07:07:28.529Z,23.15
2022-08-09T07:10:24.401Z,23.77
2022-08-09T07:12:59.342Z,24.40
2022-08-09T07:15:53.995Z,24.33
2022-08-09T07:18:23.066Z,23.75
2022-08-09T07:20:54.865Z,23.67
2022-08-09T07:23:27.308Z,22.24
2022-08-09T07:26:02.803Z,24.19
2022-08-09T07:28:35.623Z,24.67
2022-08-09T07:31:07.197Z,25.00
2022-08-09T07:33:53.012Z,25.25
2022-08-09T07:36:27.587Z,25.39
2022-08-09T07:39:02.246Z,25.98
2022-08-09T07:41:38.780Z,26.00
2022-08-09T07:44:11.778Z,25.85
2022-08-09T07:46:43.426Z,25.80
2022-08-09T07:49:15.681Z,25.70
2022-08-09T07:52:03.425Z,25.34
2022-08-09T07:54:38.689Z,24.78
2022-08-09T07:57:11.758Z,24.65
2022-08-09T07:59:52.266Z,24.53
2022-08-09T08:02:35.325Z,24.17
2022-08-09T08:05:18.521Z,24.08
2022-08-09T08:08:43.540Z,24.45
2022-08-09T08:11:03.140Z,24.47
2022-08-09T08:13:44.993Z,24.83
2022-08-09T08:16:31.365Z,24.84
2022-08-09T08:19:04.583Z,24.97
2022-08-09T08:21:39.451Z,25.85
2022-08-09T08:24:16.578Z,26.33
2022-08-09T08:26:55.538Z,26.56
2022-08-09T08:29:28.632Z,26.30
2022-08-09T08:32:12.494Z,25.74
2022-08-09T08:34:51.931Z,25.42
2022-08-09T08:37:41.069Z,25.02
2022-08-09T08:40:19.096Z,25.81
2022-08-09T08:42:50.971Z,26.51
2022-08-09T08:45:37.114Z,26.65
2022-08-09T08:48:10.198Z,27.04
2022-08-09T08:50:49.257Z,27.24
2022-08-09T08:53:23.802Z,27.36
2022-08-09T08:56:03.889Z,27.08
2022-08-09T08:58:36.193Z,27.63
2022-08-09T09:01:20.962Z,27.49
2022-08-09T09:03:56.762Z,27.78
2022-08-09T09:06:28.322Z,27.95
2022-08-09T09:09:00.190Z,27.87
2022-08-09T09:11:33.878Z,27.98
2022-08-09T09:14:10.438Z,28.14
2022-08-09T09:16:47.337Z,28.51
2022-08-09T09:19:40.147Z,28.24
2022-08-09T09:22:11.984Z,28.34
2022-08-09T09:24:44.725Z,28.59
2022-08-09T09:27:22.083Z,28.69
2022-08-09T09:30:14.312Z,28.63
2022-08-09T09:32:57.791Z,28.87
2022-08-09T09:35:33.206Z,28.80
2022-08-09T09:38:05.214Z,29.03
2022-08-09T09:40:36.768Z,29.20
2022-08-09T09:43:08.704Z,29.39
2022-08-09T09:48:36.991Z,29.69
2022-08-09T09:51:18.835Z,29.46
2022-08-09T09:54:01.289Z,29.21
2022-08-09T09:56:36.269Z,29.05
2022-08-09T09:59:35.236Z,29.27
2022-08-09T10:02:07.107Z,29.45
2022-08-09T10:04:39.924Z,28.91
2022-08-09T10:07:11.494Z,29.38
2022-08-09T10:09:48.513Z,29.24
2022-08-09T10:12:28.512Z,29.99
2022-08-09T10:15:03.039Z,29.68
2022-08-09T10:17:50.322Z,29.76
2022-08-09T10:20:35.444Z,29.96
2022-08-09T10:23:07.957Z,29.16
2022-08-09T10:26:07.887Z,29.88
2022-08-09T10:28:31.952Z,29.99
2022-08-09T10:34:10.453Z,30.29
2022-08-09T10:36:47.188Z,30.55
2022-08-09T10:39:20.084Z,31.04
2022-08-09T10:41:52.393Z,30.94
2022-08-09T10:44:26.582Z,31.14
2022-08-09T10:47:01.514Z,31.37
2022-08-09T10:49:42.755Z,31.85
2022-08-09T10:52:23.097Z,31.62
2022-08-09T10:54:58.051Z,31.65
2022-08-09T10:57:30.538Z,31.95
2022-08-09T11:00:02.195Z,31.96
2022-08-09T11:03:11.361Z,32.21
2022-08-09T11:05:35.626Z,32.57
2022-08-09T11:08:09.949Z,32.08
2022-08-09T11:10:47.145Z,31.97
2022-08-09T11:13:50.219Z,32.27
2022-08-09T11:16:34.839Z,32.93
2022-08-09T11:19:09.332Z,33.42
2022-08-09T11:21:42.667Z,32.88
2022-08-09T11:24:28.431Z,33.25
2022-08-09T11:27:03.616Z,33.35
2022-08-09T11:30:04.039Z,33.20
2022-08-09T11:32:30.229Z,31.69
2022-08-09T11:35:04.477Z,31.11
2022-08-09T11:37:41.386Z,30.86
2022-08-09T11:40:14.799Z,30.40
2022-08-09T11:42:50.195Z,30.21
2022-08-09T11:45:23.238Z,30.83
2022-08-09T11:48:03.515Z,31.81
2022-08-09T11:50:55.786Z,32.49
2022-08-09T11:54:00.491Z,31.70
2022-08-09T11:56:34.415Z,31.93
2022-08-09T11:59:14.391Z,32.17
2022-08-09T12:02:34.787Z,32.44
2022-08-09T12:04:38.323Z,33.06
2022-08-09T12:07:10.953Z,33.06
2022-08-09T12:09:50.598Z,33.77
2022-08-09T12:12:29.169Z,33.67
2022-08-09T12:15:08.299Z,34.00
2022-08-09T12:17:44.462Z,33.67
2022-08-09T12:20:22.470Z,32.36
2022-08-09T12:22:55.975Z,31.50
2022-08-09T12:25:35.733Z,32.20
2022-08-09T12:29:10.284Z,32.47
2022-08-09T12:31:01.521Z,32.45
2022-08-09T12:33:51.450Z,32.88
2022-08-09T12:36:27.396Z,32.99
2022-08-09T12:39:04.217Z,32.83
2022-08-09T12:41:39.957Z,32.14
2022-08-09T12:44:12.982Z,31.65
2022-08-09T12:46:48.876Z,30.81
2022-08-09T12:49:22.717Z,30.83
2022-08-09T12:52:01.502Z,30.60
2022-08-09T12:54:34.850Z,30.13
2022-08-09T12:57:06.789Z,30.74
2022-08-09T13:00:03.480Z,30.12
2022-08-09T13:02:33.957Z,30.18
2022-08-09T13:05:06.423Z,31.06
2022-08-09T13:07:51.025Z,32.30
2022-08-09T13:10:23.584Z,32.20
2022-08-09T13:13:09.941Z,32.41
2022-08-09T13:15:42.547Z,31.20
2022-08-09T13:18:17.446Z,30.53
2022-08-09T13:21:04.269Z,30.24
2022-08-09T13:24:06.936Z,29.84
2022-08-09T13:26:36.908Z,29.40
2022-08-09T13:29:08.922Z,29.33
2022-08-09T13:32:15.665Z,29.14
2022-08-09T13:34:32.585Z,28.92
2022-08-09T13:37:05.468Z,29.03
2022-08-09T13:41:50.414Z,28.89
2022-08-09T13:42:36.498Z,28.79
2022-08-09T13:45:08.371Z,28.78
2022-08-09T13:47:49.175Z,28.42
2022-08-09T13:50:31.105Z,28.35
2022-08-09T13:53:03.684Z,28.61
2022-08-09T13:55:37.007Z,29.26
2022-08-09T13:58:11.810Z,29.36
2022-08-09T14:00:50.631Z,29.76
2022-08-09T14:04:02.525Z,29.14
2022-08-09T14:06:25.625Z,29.05
2022-08-09T14:09:00.851Z,30.00
2022-08-09T14:11:41.326Z,31.41
2022-08-09T14:14:25.715Z,31.00
2022-08-09T14:16:59.683Z,29.99
2022-08-09T14:19:33.627Z,29.31
2022-08-09T14:22:05.866Z,30.73
2022-08-09T14:24:46.932Z,31.47
2022-08-09T14:27:26.744Z,32.08
2022-08-09T14:30:34.667Z,32.23
2022-08-09T14:32:50.144Z,32.18
2022-08-09T14:35:21.792Z,32.50
2022-08-09T14:38:02.067Z,32.40
2022-08-09T14:41:01.173Z,33.01
2022-08-09T14:43:26.545Z,33.68
2022-08-09T14:46:57.305Z,33.68
2022-08-09T14:49:10.571Z,34.18
2022-08-09T14:51:42.802Z,33.68
2022-08-09T14:54:16.728Z,33.93
2022-08-09T14:56:58.666Z,33.65
2022-08-09T14:59:30.798Z,33.04
2022-08-09T15:02:02.651Z,34.57
2022-08-09T15:04:34.185Z,34.06
2022-08-09T15:07:05.894Z,33.85
2022-08-09T15:10:04.082Z,33.48
2022-08-09T15:12:33.929Z,33.53
2022-08-09T15:15:08.686Z,32.55
2022-08-09T15:17:42.096Z,31.94
2022-08-09T15:21:53.558Z,31.06
2022-08-09T15:24:02.278Z,30.75
2022-08-09T15:25:58.943Z,30.53
2022-08-09T15:28:33.269Z,30.52
2022-08-09T15:31:09.968Z,31.30
2022-08-09T15:34:15.445Z,31.12
2022-08-09T15:36:34.988Z,31.55
2022-08-09T15:39:06.573Z,31.63
2022-08-09T15:41:38.429Z,31.24
2022-08-09T15:44:14.163Z,31.28
2022-08-09T15:46:51.251Z,31.04
2022-08-09T15:49:23.924Z,30.88
2022-08-09T15:52:04.934Z,30.89
2022-08-09T15:54:48.889Z,30.64
2022-08-09T15:57:35.178Z,30.57
2022-08-09T16:00:24.352Z,30.53
2022-08-09T16:02:57.808Z,30.62
2022-08-09T16:05:47.238Z,30.77
2022-08-09T16:08:30.932Z,30.35
2022-08-09T16:11:02.941Z,29.66
2022-08-09T16:14:03.391Z,29.76
2022-08-09T16:16:29.634Z,29.64
2022-08-09T16:19:01.180Z,29.50
2022-08-09T16:21:34.846Z,29.31
2022-08-09T16:24:13.090Z,29.10
2022-08-09T16:26:58.611Z,28.90
2022-08-09T16:29:37.752Z,28.74
2022-08-09T16:32:43.486Z,28.79
2022-08-09T16:35:19.380Z,28.40
2022-08-09T16:38:05.270Z,28.31
2022-08-09T16:40:41.027Z,28.21
2022-08-09T16:43:14.394Z,28.20
2022-08-09T16:45:46.557Z,28.07
2022-08-09T16:48:42.403Z,27.96
2022-08-09T16:51:13.930Z,27.78
2022-08-09T16:56:37.929Z,27.53
2022-08-09T16:59:21.072Z,27.51
2022-08-09T17:01:53.295Z,27.32
2022-08-09T17:04:28.266Z,27.27
2022-08-09T17:08:40.585Z,27.10
2022-08-09T17:09:52.311Z,26.99
2022-08-09T17:12:33.642Z,26.90
2022-08-09T17:15:30.489Z,26.82
2022-08-09T17:18:00.859Z,26.78
2022-08-09T17:20:37.308Z,26.70
2022-08-09T17:23:14.861Z,26.59
2022-08-09T17:25:53.041Z,26.44
2022-08-09T17:28:24.876Z,26.36
2022-08-09T17:30:58.801Z,26.31
2022-08-09T17:33:32.264Z,26.28
2022-08-09T17:36:10.949Z,26.29
2022-08-09T17:38:57.702Z,26.24
2022-08-09T17:41:38.813Z,26.27
2022-08-09T17:44:42.401Z,26.07
2022-08-09T17:47:03.993Z,26.10
2022-08-09T17:49:35.675Z,26.03
2022-08-09T17:52:07.504Z,25.96
2022-08-09T17:54:54.514Z,25.72
2022-08-09T17:58:03.820Z,25.56
2022-08-09T18:00:20.618Z,25.49
2022-08-09T18:03:12.737Z,25.39
2022-08-09T18:05:44.601Z,25.35
2022-08-09T18:08:16.286Z,25.17
2022-08-09T18:11:02.278Z,25.09
2022-08-09T18:13:43.500Z,25.06
2022-08-09T18:16:29.666Z,24.99
2022-08-09T18:19:03.798Z,24.93
2022-08-09T18:21:41.317Z,24.88
2022-08-09T18:24:14.243Z,24.76
2022-08-09T18:26:49.401Z,24.70
2022-08-09T18:30:40.712Z,24.61
2022-08-09T18:32:12.954Z,24.55
2022-08-09T18:34:44.447Z,24.47
2022-08-09T18:37:48.993Z,24.44
2022-08-09T18:40:08.270Z,24.25
2022-08-09T18:42:43.013Z,24.19
2022-08-09T18:45:21.456Z,24.11
2022-08-09T18:48:07.302Z,23.99
2022-08-09T18:50:39.927Z,23.93
2022-08-09T18:53:13.634Z,23.82
2022-08-09T18:55:56.218Z,23.76
2022-08-09T18:58:31.989Z,23.66
2022-08-09T19:01:04.552Z,23.57
2022-08-09T19:03:54.686Z,23.52
2022-08-09T19:06:28.030Z,23.43
2022-08-09T19:09:02.522Z,23.38
2022-08-09T19:11:37.860Z,23.29
2022-08-09T19:14:09.985Z,23.24
2022-08-09T19:16:50.112Z,23.13
2022-08-09T19:19:26.024Z,23.08
2022-08-09T19:22:06.191Z,23.05
2022-08-09T19:25:11.304Z,22.99
2022-08-09T19:27:31.129Z,21.79
2022-08-09T19:30:22.497Z,22.90
2022-08-09T19:32:55.244Z,22.84
2022-08-09T19:35:27.153Z,22.78
2022-08-09T19:37:58.669Z,22.71
2022-08-09T19:40:33.357Z,22.65
2022-08-09T19:43:10.336Z,22.61
2022-08-09T19:45:48.367Z,22.56
2022-08-09T19:49:00.155Z,22.51
2022-08-09T19:51:20.374Z,22.42
2022-08-09T19:53:52.028Z,22.39
2022-08-09T19:56:29.110Z,22.32
2022-08-09T19:59:39.992Z,22.29
2022-08-09T20:02:08.010Z,22.25
2022-08-09T20:04:54.988Z,22.18
2022-08-09T20:07:56.962Z,22.13
2022-08-09T20:10:22.379Z,22.11
2022-08-09T20:13:00.352Z,22.04
2022-08-09T20:16:37.518Z,22.01
2022-08-09T20:18:27.811Z,21.96
2022-08-09T20:21:00.284Z,21.88
2022-08-09T20:23:38.922Z,21.83
2022-08-09T20:26:13.295Z,21.77
2022-08-09T20:28:48.611Z,21.71
2022-08-09T20:31:22.330Z,21.67
2022-08-09T20:33:58.440Z,21.65
2022-08-09T20:36:33.908Z,21.59
2022-08-09T20:39:29.155Z,21.57
2022-08-09T20:41:57.930Z,21.49
2022-08-09T20:44:33.262Z,21.45
2022-08-09T20:47:08.235Z,21.40
2022-08-09T20:49:59.778Z,21.34
2022-08-09T20:52:31.285Z,19.88
2022-08-09T20:55:03.259Z,21.24
2022-08-09T20:57:34.827Z,21.19
2022-08-09T21:00:31.617Z,21.16
2022-08-09T21:03:04.919Z,21.14
2022-08-09T21:05:55.005Z,21.08
2022-08-09T21:08:36.619Z,21.03
2022-08-09T21:14:00.669Z,20.94
2022-08-09T21:16:32.661Z,20.90
2022-08-09T21:20:19.618Z,20.83
2022-08-09T21:21:57.288Z,20.77
2022-08-09T21:24:32.469Z,20.72
2022-08-09T21:27:50.520Z,20.68
2022-08-09T21:29:57.212Z,20.65
2022-08-09T21:32:33.260Z,20.64
2022-08-09T21:35:05.756Z,20.57
2022-08-09T21:37:47.183Z,20.52
2022-08-09T21:40:32.603Z,19.95
2022-08-09T21:43:04.303Z,20.45
2022-08-09T21:45:38.849Z,20.38
2022-08-09T21:48:10.749Z,20.37
2022-08-09T21:50:49.703Z,20.31
2022-08-09T21:53:40.120Z,20.27
2022-08-09T21:56:28.307Z,20.20
2022-08-09T21:59:04.777Z,20.18
2022-08-09T22:01:58.710Z,20.14
2022-08-09T22:04:55.699Z,20.10
2022-08-09T22:07:35.534Z,20.07
2022-08-09T22:10:12.347Z,20.01
2022-08-09T22:12:49.773Z,19.97
2022-08-09T22:15:23.375Z,19.95
2022-08-09T22:18:11.971Z,19.90
2022-08-09T22:20:44.325Z,19.86
2022-08-09T22:23:17.643Z,19.83
2022-08-09T22:26:07.384Z,19.82
2022-08-09T22:28:47.099Z,19.77
2022-08-09T22:31:25.871Z,19.73
2022-08-09T22:33:59.489Z,19.64
2022-08-09T22:36:37.315Z,19.60
2022-08-09T22:39:47.015Z,19.60
2022-08-09T22:42:21.443Z,19.57
2022-08-09T22:48:05.187Z,19.53
2022-08-09T22:48:13.618Z,19.48
2022-08-09T22:50:37.812Z,19.44
2022-08-09T22:53:09.329Z,19.41
2022-08-09T22:56:29.476Z,19.34
2022-08-09T22:58:33.576Z,19.32
2022-08-09T23:01:06.614Z,19.29
2022-08-09T23:04:04.134Z,19.26
2022-08-09T23:06:49.954Z,19.22
2022-08-09T23:09:21.814Z,19.17
2022-08-09T23:11:53.618Z,19.14
2022-08-09T23:14:41.410Z,19.08
2022-08-09T23:17:14.481Z,19.05
2022-08-09T23:20:00.589Z,19.01
2022-08-09T23:22:37.763Z,18.95
2022-08-09T23:25:11.153Z,18.94
2022-08-09T23:28:11.856Z,18.90
2022-08-09T23:30:34.700Z,18.87
2022-08-09T23:33:06.187Z,18.83
2022-08-09T23:36:04.440Z,18.80
2022-08-09T23:38:29.511Z,18.77
2022-08-09T23:41:01.322Z,18.70
2022-08-09T23:43:32.850Z,18.66
2022-08-09T23:46:04.729Z,18.62
2022-08-09T23:48:36.222Z,18.57
2022-08-09T23:51:08.046Z,18.58
2022-08-09T23:53:39.555Z,18.53
2022-08-09T23:56:11.397Z,18.50
2022-08-09T23:58:42.911Z,18.46
